Time;durP1;ratioP1;P1;durP2;ratioP2;P2;SDS_P1;SDS_P2;PMS_P1;PMS_P2;Temp;Humidity;BMP_temperature;BMP_pressure;BME280_temperature;BME280_humidity;BME280_pressure;Samples;Min_cycle;Max_cycle;Signal;HPM_P1;HPM_P2
2020/07/19 00:01:33;;;;;;;4.3;2.4;;;;;;;16.91;75.25;940.8204;;;;
2020/07/19 00:04:04;;;;;;;3.8;2.2;;;;;;;16.91;75.13281;940.8068;;;;
2020/07/19 00:06:28;;;;;;;3.1;2.5;;;;;;;16.96;74.71484;940.8617;;;;
2020/07/19 00:08:55;;;;;;;3.3;2.4;;;;;;;16.84;75.09863;940.8187;;;;
2020/07/19 00:11:20;;;;;;;5.2;2.4;;;;;;;16.81;75.62891;940.8975;;;;
2020/07/19 00:13:49;;;;;;;3.9;2.7;;;;;;;16.76;76.32617;940.8683;;;;
2020/07/19 00:16:14;;;;;;;3.6;2.6;;;;;;;16.88;76.7041;940.8594;;;;
2020/07/19 00:18:42;;;;;;;4.3;3.1;;;;;;;16.81;77.56348;940.8654;;;;
2020/07/19 00:21:07;;;;;;;3;2.7;;;;;;;16.66;78.40234;940.8691;;;;
2020/07/19 00:23:34;;;;;;;4.5;2.8;;;;;;;16.57;78.72363;940.8672;;;;
2020/07/19 00:26:11;;;;;;;4.2;2.6;;;;;;;16.62;78.80176;940.8839;;;;
2020/07/19 00:28:37;;;;;;;2.9;2.5;;;;;;;16.58;78.24902;940.8478;;;;
2020/07/19 00:31:07;;;;;;;3.3;2.7;;;;;;;16.52;78.35547;940.8499;;;;
2020/07/19 00:33:36;;;;;;;4.1;3;;;;;;;16.33;79.20117;940.8169;;;;
2020/07/19 00:36:02;;;;;;;3.4;2.6;;;;;;;16.45;79.12988;940.8547;;;;
2020/07/19 00:38:27;;;;;;;5.2;2.8;;;;;;;16.46;79.66309;940.8642;;;;
2020/07/19 00:40:52;;;;;;;3.4;2.7;;;;;;;16.57;78.97754;940.782;;;;
2020/07/19 00:43:17;;;;;;;4.2;2.6;;;;;;;16.47;78.6582;940.7725;;;;
2020/07/19 00:45:43;;;;;;;3.2;2.9;;;;;;;16.52;78.49414;940.7599;;;;
2020/07/19 00:48:13;;;;;;;4.7;2.8;;;;;;;16.45;78.62012;940.7333;;;;
2020/07/19 00:50:39;;;;;;;3.8;2.6;;;;;;;16.6;78.80957;940.6836;;;;
2020/07/19 00:53:06;;;;;;;2.9;2.1;;;;;;;16.64;75.62109;940.6353;;;;
2020/07/19 00:55:32;;;;;;;6;2.4;;;;;;;16.78;75.62207;940.6027;;;;
2020/07/19 00:57:58;;;;;;;4.4;2.7;;;;;;;16.81;77.33008;940.5847;;;;
2020/07/19 01:00:23;;;;;;;3.8;2.8;;;;;;;16.83;77.53027;940.5856;;;;
2020/07/19 01:02:48;;;;;;;5;2.6;;;;;;;16.83;78.12207;940.5228;;;;
2020/07/19 01:05:18;;;;;;;3.8;2.7;;;;;;;16.78;78.09961;940.5055;;;;
2020/07/19 01:07:43;;;;;;;4;2.9;;;;;;;16.67;78.45117;940.4487;;;;
2020/07/19 01:10:08;;;;;;;3.3;2.6;;;;;;;16.64;78.66797;940.46;;;;
2020/07/19 01:12:36;;;;;;;3.4;2.6;;;;;;;16.56;79.10449;940.4363;;;;
2020/07/19 01:15:01;;;;;;;3.9;2.6;;;;;;;16.52;79.18848;940.4062;;;;
2020/07/19 01:17:27;;;;;;;4.3;2.7;;;;;;;16.51;79.15137;940.4185;;;;
2020/07/19 01:19:52;;;;;;;5.3;2.9;;;;;;;16.44;79.12793;940.3323;;;;
2020/07/19 01:22:17;;;;;;;5.9;2.4;;;;;;;16.28;77.37598;940.3825;;;;
2020/07/19 01:24:42;;;;;;;4.1;2.6;;;;;;;16.41;77.57227;940.2736;;;;
2020/07/19 01:27:12;;;;;;;3.2;2.3;;;;;;;16.4;76.43652;940.3106;;;;
2020/07/19 01:29:37;;;;;;;2.3;2.1;;;;;;;16.5;76.06055;940.3269;;;;
2020/07/19 01:32:02;;;;;;;4;2.6;;;;;;;16.43;77.03125;940.3484;;;;
2020/07/19 01:34:33;;;;;;;4.4;2.6;;;;;;;16.28;78.70508;940.2403;;;;
2020/07/19 01:36:59;;;;;;;4.7;2.8;;;;;;;15.98;79.91309;940.2792;;;;
2020/07/19 01:39:25;;;;;;;3.7;2.8;;;;;;;16;79.96289;940.2277;;;;
2020/07/19 01:41:51;;;;;;;3.2;2.9;;;;;;;15.78;81.13477;940.2781;;;;
2020/07/19 01:44:16;;;;;;;7;2.8;;;;;;;15.47;83.21289;940.2667;;;;
2020/07/19 01:46:42;;;;;;;3.7;3;;;;;;;15.76;82.35547;940.259;;;;
2020/07/19 01:49:12;;;;;;;4.3;3;;;;;;;15.95;81.24805;940.2313;;;;
2020/07/19 01:51:41;;;;;;;4.8;3;;;;;;;16.03;80.92773;940.1635;;;;
2020/07/19 01:54:06;;;;;;;3.7;2.9;;;;;;;16.06;80.64355;940.156;;;;
2020/07/19 01:56:32;;;;;;;4.1;3;;;;;;;15.92;81.06934;940.1383;;;;
2020/07/19 01:58:57;;;;;;;5;3;;;;;;;15.66;82.1748;940.1898;;;;
2020/07/19 02:01:22;;;;;;;5.7;3;;;;;;;15.44;82.7002;940.1425;;;;
2020/07/19 02:03:51;;;;;;;3.8;2.8;;;;;;;15.34;83.08691;940.1638;;;;
2020/07/19 02:06:16;;;;;;;4.3;3.1;;;;;;;15.19;83.21875;940.1161;;;;
2020/07/19 02:08:41;;;;;;;5.6;2.9;;;;;;;15.33;83.03711;940.11;;;;
2020/07/19 02:11:07;;;;;;;3.7;2.9;;;;;;;15.28;83.4668;940.087;;;;
2020/07/19 02:13:34;;;;;;;5.4;3.2;;;;;;;15.32;83.58984;940.0636;;;;
2020/07/19 02:15:59;;;;;;;4.9;3.1;;;;;;;15.26;83.74121;940.0623;;;;
2020/07/19 02:18:24;;;;;;;4.2;2.9;;;;;;;15.17;84.21973;940.0697;;;;
2020/07/19 02:20:49;;;;;;;3.6;3;;;;;;;15.25;83.95703;940.0905;;;;
2020/07/19 02:23:17;;;;;;;5.4;3.5;;;;;;;15.16;84.56445;940.0922;;;;
2020/07/19 02:25:42;;;;;;;6.2;3.4;;;;;;;14.92;85.74902;940.1348;;;;
2020/07/19 02:28:07;;;;;;;4.1;3.5;;;;;;;14.86;86.2002;940.0765;;;;
2020/07/19 02:30:34;;;;;;;6.1;3.7;;;;;;;14.98;85.76367;940.0608;;;;
2020/07/19 02:32:59;;;;;;;3.7;3.3;;;;;;;15.21;84.60742;940.0318;;;;
2020/07/19 02:35:29;;;;;;;3.1;2.8;;;;;;;15.45;83.25781;940.0381;;;;
2020/07/19 02:37:57;;;;;;;5.2;3.3;;;;;;;15.53;82.65918;940.0433;;;;
2020/07/19 02:40:23;;;;;;;5.4;3.1;;;;;;;15.6;82.26855;940.0311;;;;
2020/07/19 02:42:48;;;;;;;6;3.1;;;;;;;15.66;81.9668;939.9659;;;;
2020/07/19 02:45:14;;;;;;;3.9;2.9;;;;;;;15.73;81.63379;940.0344;;;;
2020/07/19 02:47:41;;;;;;;5.3;3.1;;;;;;;15.74;81.4502;940.0295;;;;
2020/07/19 02:50:06;;;;;;;3;2.6;;;;;;;15.79;81.0791;940.0371;;;;
2020/07/19 02:52:34;;;;;;;3.1;2.8;;;;;;;15.73;81.4375;939.9589;;;;
2020/07/19 02:54:59;;;;;;;7;3.1;;;;;;;15.78;81.34277;939.9617;;;;
2020/07/19 02:57:26;;;;;;;3.4;2.9;;;;;;;15.8;81.20801;939.9351;;;;
2020/07/19 02:59:51;;;;;;;4.7;2.9;;;;;;;15.74;81.11523;939.9324;;;;
2020/07/19 03:02:18;;;;;;;4.1;2.8;;;;;;;15.65;81.28516;939.9065;;;;
2020/07/19 03:04:47;;;;;;;3.5;3.2;;;;;;;15.77;81.38574;939.8045;;;;
2020/07/19 03:07:12;;;;;;;5.1;3;;;;;;;15.88;81.17676;939.9299;;;;
2020/07/19 03:09:38;;;;;;;3.6;2.8;;;;;;;15.9;79.95605;939.8775;;;;
2020/07/19 03:12:04;;;;;;;6.1;2.6;;;;;;;15.87;79.93848;939.934;;;;
2020/07/19 03:14:29;;;;;;;3.4;2.6;;;;;;;15.93;79.66113;939.9214;;;;
2020/07/19 03:16:55;;;;;;;3.4;3.1;;;;;;;15.96;79.30762;939.9219;;;;
2020/07/19 03:19:20;;;;;;;4.3;2.9;;;;;;;16.05;80.08691;939.9006;;;;
2020/07/19 03:21:48;;;;;;;7;3.1;;;;;;;16.12;79.90234;939.8606;;;;
2020/07/19 03:24:13;;;;;;;4;2.9;;;;;;;16.19;80.03027;939.9049;;;;
2020/07/19 03:26:41;;;;;;;5.6;3;;;;;;;16.27;79.64063;939.902;;;;
2020/07/19 03:29:06;;;;;;;4.3;2.5;;;;;;;16.3;79.12695;939.9484;;;;
2020/07/19 03:31:35;;;;;;;3.8;2.8;;;;;;;16.34;79.16797;939.9022;;;;
2020/07/19 03:34:00;;;;;;;4.2;2.8;;;;;;;16.29;78.78809;939.8223;;;;
2020/07/19 03:36:30;;;;;;;4.4;2.7;;;;;;;16.25;78.57324;939.8428;;;;
2020/07/19 03:38:55;;;;;;;5.8;3;;;;;;;16.15;78.6709;939.7905;;;;
2020/07/19 03:41:24;;;;;;;3.1;2.8;;;;;;;16.1;78.7666;939.7427;;;;
2020/07/19 03:43:49;;;;;;;3.1;2.7;;;;;;;15.94;78.25195;939.7117;;;;
2020/07/19 03:46:14;;;;;;;3.5;2.7;;;;;;;16;78.03027;939.6928;;;;
2020/07/19 03:48:39;;;;;;;3.6;2.8;;;;;;;16.07;78.06641;939.7662;;;;
2020/07/19 03:51:05;;;;;;;3.2;2.6;;;;;;;16.12;77.64648;939.7706;;;;
2020/07/19 03:53:30;;;;;;;4.2;2.8;;;;;;;16.2;77.44336;939.757;;;;
2020/07/19 03:56:00;;;;;;;4.5;2.9;;;;;;;16.22;77.6416;939.7167;;;;
2020/07/19 03:58:28;;;;;;;5.5;2.8;;;;;;;16.05;78.24707;939.6822;;;;
2020/07/19 04:02:32;;;;;;;5.7;2.7;;;;;;;16.02;78.08203;939.7226;;;;
2020/07/19 04:04:57;;;;;;;4.8;3.2;;;;;;;16.1;77.75879;939.7315;;;;
2020/07/19 04:07:22;;;;;;;4.6;3.2;;;;;;;16.2;78.33203;939.7266;;;;
2020/07/19 04:09:49;;;;;;;3.1;2.5;;;;;;;16.2;76.14746;939.7136;;;;
2020/07/19 04:12:24;;;;;;;3.4;2.7;;;;;;;16.23;76.96387;939.7353;;;;
2020/07/19 04:14:52;;;;;;;5.6;3.1;;;;;;;16.31;77.3584;939.7522;;;;
2020/07/19 04:17:17;;;;;;;4.8;2.9;;;;;;;15.97;78.23535;939.7468;;;;
2020/07/19 04:19:42;;;;;;;5.6;3.2;;;;;;;15.98;78.6416;939.7299;;;;
2020/07/19 04:22:07;;;;;;;3.9;3.2;;;;;;;16.05;78.66602;939.7488;;;;
2020/07/19 04:24:32;;;;;;;4;3;;;;;;;15.98;79.4375;939.6994;;;;
2020/07/19 04:26:57;;;;;;;5.3;3.1;;;;;;;15.94;79.69531;939.7286;;;;
2020/07/19 04:29:23;;;;;;;5;3;;;;;;;15.94;80.03125;939.7824;;;;
2020/07/19 04:31:51;;;;;;;4;3.2;;;;;;;16.06;79.86914;939.7335;;;;
2020/07/19 04:34:18;;;;;;;3.1;2.8;;;;;;;16.16;79.67871;939.6939;;;;
2020/07/19 04:36:44;;;;;;;3.4;2.7;;;;;;;16.29;79.59766;939.7081;;;;
2020/07/19 04:39:09;;;;;;;7.9;3.3;;;;;;;16.32;78.96582;939.65;;;;
2020/07/19 04:41:35;;;;;;;6.4;3.1;;;;;;;16.33;79.21289;939.6459;;;;
2020/07/19 04:44:00;;;;;;;5.4;3.1;;;;;;;16.29;79.41211;939.7299;;;;
2020/07/19 04:46:25;;;;;;;6.4;3.1;;;;;;;16.17;80.14355;939.6906;;;;
2020/07/19 04:48:51;;;;;;;4.7;3;;;;;;;16.09;80.16504;939.623;;;;
2020/07/19 04:51:16;;;;;;;4.8;2.9;;;;;;;16.1;79.77344;939.4936;;;;
2020/07/19 04:53:41;;;;;;;3.4;2.6;;;;;;;16.19;79.39453;939.5474;;;;
2020/07/19 04:56:06;;;;;;;4.5;2.8;;;;;;;16.24;79.34668;939.4749;;;;
2020/07/19 04:58:35;;;;;;;5.7;2.9;;;;;;;16.31;78.14355;939.5369;;;;
2020/07/19 05:01:00;;;;;;;3.6;2.7;;;;;;;16.34;78.32324;939.53;;;;
2020/07/19 05:03:25;;;;;;;2.9;2.6;;;;;;;16.49;78.26953;939.5511;;;;
2020/07/19 05:05:59;;;;;;;4.9;2.8;;;;;;;16.59;78.35645;939.4906;;;;
2020/07/19 05:08:24;;;;;;;6.6;3;;;;;;;16.68;77.41211;939.4345;;;;
2020/07/19 05:10:53;;;;;;;4.2;2.8;;;;;;;16.73;77.10742;939.4927;;;;
2020/07/19 05:13:18;;;;;;;4;2.9;;;;;;;16.77;77.02246;939.3861;;;;
2020/07/19 05:15:45;;;;;;;4.4;2.5;;;;;;;16.66;76.45898;939.3914;;;;
2020/07/19 05:18:13;;;;;;;5.4;2.9;;;;;;;16.31;77.65918;939.3914;;;;
2020/07/19 05:20:41;;;;;;;5.7;2.9;;;;;;;16.18;79.18652;939.4391;;;;
2020/07/19 05:23:06;;;;;;;7.2;3.3;;;;;;;16.28;78.8457;939.4069;;;;
2020/07/19 05:25:32;;;;;;;5.8;2.7;;;;;;;15.91;79.66797;939.4992;;;;
2020/07/19 05:27:57;;;;;;;4.5;2.9;;;;;;;15.99;79.93652;939.5025;;;;
2020/07/19 05:30:31;;;;;;;5.5;2.5;;;;;;;16.11;79.7168;939.4573;;;;
2020/07/19 05:32:55;;;;;;;5;2.6;;;;;;;16.19;78.71387;939.3802;;;;
2020/07/19 05:35:24;;;;;;;3.9;2.8;;;;;;;16.36;78.17578;939.415;;;;
2020/07/19 05:37:54;;;;;;;4.3;2.6;;;;;;;16.45;77.50879;939.4117;;;;
2020/07/19 05:40:19;;;;;;;3.2;2.8;;;;;;;16.39;78.19434;939.4515;;;;
2020/07/19 05:42:44;;;;;;;6.1;2.8;;;;;;;16.59;77.75488;939.3861;;;;
2020/07/19 05:45:15;;;;;;;4;2.7;;;;;;;16.66;77.53418;939.3912;;;;
2020/07/19 05:47:42;;;;;;;2.9;2.6;;;;;;;16.74;77.67773;939.3133;;;;
2020/07/19 05:50:07;;;;;;;4.7;2.7;;;;;;;17.03;77.19531;939.3679;;;;
2020/07/19 05:52:33;;;;;;;2.8;2.5;;;;;;;17.2;76.06543;939.3592;;;;
2020/07/19 05:54:58;;;;;;;2.9;2.5;;;;;;;17.33;74.60449;939.3809;;;;
2020/07/19 05:57:23;;;;;;;4.7;2.5;;;;;;;17.25;75.05273;939.3708;;;;
2020/07/19 05:59:48;;;;;;;5.2;3;;;;;;;17.36;75.58301;939.3845;;;;
2020/07/19 06:02:15;;;;;;;4.3;2.8;;;;;;;17.33;74.75488;939.3929;;;;
2020/07/19 06:04:44;;;;;;;3.8;2.5;;;;;;;17.43;74.83008;939.4328;;;;
2020/07/19 06:07:10;;;;;;;3;2.6;;;;;;;17.37;73.24121;939.4398;;;;
2020/07/19 06:09:35;;;;;;;4.6;2.7;;;;;;;17.49;73.66699;939.415;;;;
2020/07/19 06:12:01;;;;;;;4;2.3;;;;;;;17.64;72.88086;939.4258;;;;
2020/07/19 06:14:27;;;;;;;3.6;2.5;;;;;;;17.71;72.0332;939.3936;;;;
2020/07/19 06:16:53;;;;;;;4.3;2.5;;;;;;;17.76;74.3877;939.392;;;;
2020/07/19 06:19:18;;;;;;;4.1;2.5;;;;;;;17.89;71.40137;939.3909;;;;
2020/07/19 06:21:43;;;;;;;4.2;2.2;;;;;;;18.16;72.25879;939.4324;;;;
2020/07/19 06:24:10;;;;;;;3.8;2.9;;;;;;;18.45;70.86426;939.4503;;;;
2020/07/19 06:26:35;;;;;;;4.4;2.7;;;;;;;18.87;69.33496;939.4511;;;;
2020/07/19 06:29:00;;;;;;;5.6;2.4;;;;;;;19.2;67.09473;939.4676;;;;
2020/07/19 06:31:25;;;;;;;2.9;2.2;;;;;;;19.29;66.74805;939.4361;;;;
2020/07/19 06:33:52;;;;;;;8.1;2.4;;;;;;;19.42;65.57813;939.4211;;;;
2020/07/19 06:36:17;;;;;;;3.8;2.4;;;;;;;19.23;66.27246;939.4189;;;;
2020/07/19 06:38:42;;;;;;;3.1;2.1;;;;;;;19.5;66.05664;939.4494;;;;
2020/07/19 06:41:07;;;;;;;4.4;2.1;;;;;;;19.51;65.18359;939.4371;;;;
2020/07/19 06:43:32;;;;;;;4.3;2.4;;;;;;;19.88;67.03516;939.5067;;;;
2020/07/19 06:45:59;;;;;;;4;2.3;;;;;;;20.39;64.97559;939.4766;;;;
2020/07/19 06:48:24;;;;;;;4;2.1;;;;;;;20.67;62.14063;939.5;;;;
2020/07/19 06:50:49;;;;;;;4.8;1.8;;;;;;;21.03;60.56836;939.5094;;;;
2020/07/19 06:53:15;;;;;;;3.4;2;;;;;;;21.38;59.3623;939.4465;;;;
2020/07/19 06:55:40;;;;;;;3.5;2.2;;;;;;;21.57;60.47656;939.4952;;;;
2020/07/19 06:58:05;;;;;;;3.3;2;;;;;;;21.61;57.14355;939.5338;;;;
2020/07/19 07:00:37;;;;;;;4.3;2.4;;;;;;;21.94;57.41016;939.5474;;;;
2020/07/19 07:03:02;;;;;;;2.8;1.8;;;;;;;21.99;57.72168;939.5944;;;;
2020/07/19 07:05:27;;;;;;;3.5;1.9;;;;;;;21.95;55.94629;939.5496;;;;
2020/07/19 07:07:52;;;;;;;2.4;2;;;;;;;22.14;57.65918;939.5916;;;;
2020/07/19 07:10:18;;;;;;;3.9;2;;;;;;;21.91;57.91016;939.5093;;;;
2020/07/19 07:12:54;;;;;;;2.6;2.1;;;;;;;22.05;57.48242;939.5516;;;;
2020/07/19 07:15:23;;;;;;;2.6;1.9;;;;;;;22.49;54.58301;939.5024;;;;
2020/07/19 07:17:50;;;;;;;2.3;1.8;;;;;;;22.08;56.34961;939.476;;;;
2020/07/19 07:20:18;;;;;;;3.5;1.9;;;;;;;22.33;58.09277;939.4581;;;;
2020/07/19 07:22:43;;;;;;;3.9;1.8;;;;;;;25.08;48.66992;939.399;;;;
2020/07/19 07:25:13;;;;;;;3;1.6;;;;;;;26.08;44.95801;939.3561;;;;
2020/07/19 07:27:38;;;;;;;4.7;1.5;;;;;;;27.85;41.3125;939.3191;;;;
2020/07/19 07:30:03;;;;;;;2.9;1.5;;;;;;;28.44;41.00977;939.331;;;;
2020/07/19 07:32:30;;;;;;;2.4;1.4;;;;;;;29.95;36.1123;939.2176;;;;
2020/07/19 07:34:55;;;;;;;2.5;1.4;;;;;;;29.7;38.17871;939.1541;;;;
2020/07/19 07:37:21;;;;;;;2.1;1.4;;;;;;;29.7;38.94141;939.1541;;;;
2020/07/19 07:39:46;;;;;;;1.7;1.2;;;;;;;31.32;33.68555;939.2219;;;;
2020/07/19 07:42:13;;;;;;;3.1;1.2;;;;;;;31.06;35.5791;939.1906;;;;
2020/07/19 07:44:38;;;;;;;1.6;1.3;;;;;;;31.11;33.72949;939.1561;;;;
2020/07/19 07:47:05;;;;;;;1.6;1.2;;;;;;;32.23;32.25391;939.1308;;;;
2020/07/19 07:49:30;;;;;;;2.4;1.4;;;;;;;32.06;33.7998;939.1359;;;;
2020/07/19 07:51:57;;;;;;;2.8;1.4;;;;;;;32.94;33.5293;939.1063;;;;
2020/07/19 07:54:22;;;;;;;3.6;1.4;;;;;;;33.84;30.20215;939.1047;;;;
2020/07/19 07:56:49;;;;;;;1.6;1.3;;;;;;;34.09;29.44824;939.0656;;;;
2020/07/19 07:59:14;;;;;;;2;1.2;;;;;;;34.48;29.67871;939.081;;;;
2020/07/19 08:01:43;;;;;;;2;1.2;;;;;;;34.38;27.12988;939.0781;;;;
2020/07/19 08:04:08;;;;;;;1.5;1.1;;;;;;;35.2;27.60156;939.0588;;;;
2020/07/19 08:06:33;;;;;;;1.5;1.1;;;;;;;34.75;27.38086;939.0352;;;;
2020/07/19 08:09:00;;;;;;;3.1;1.3;;;;;;;35.69;24.68262;939.0836;;;;
2020/07/19 08:11:26;;;;;;;2.4;1.4;;;;;;;35.67;28.0166;939.1247;;;;
2020/07/19 08:13:52;;;;;;;1.7;1.1;;;;;;;35.9;25.97559;939.1278;;;;
2020/07/19 08:16:19;;;;;;;1.8;1.1;;;;;;;36.14;25.39648;939.0697;;;;
2020/07/19 08:18:44;;;;;;;1.1;1;;;;;;;35.9;27.90918;939.0465;;;;
2020/07/19 08:21:09;;;;;;;1.7;1.2;;;;;;;35.44;28.48535;939.0348;;;;
2020/07/19 08:23:34;;;;;;;2.1;1.2;;;;;;;35.76;25.33887;938.9586;;;;
2020/07/19 08:26:00;;;;;;;1.7;1.1;;;;;;;35.75;26.02734;939.0087;;;;
2020/07/19 08:28:24;;;;;;;1.6;1.2;;;;;;;35.63;28.21875;939.0064;;;;
2020/07/19 08:30:52;;;;;;;2;1.3;;;;;;;36.33;28.04492;939.0086;;;;
2020/07/19 08:33:20;;;;;;;1.7;1.3;;;;;;;36.23;24.6875;938.9939;;;;
2020/07/19 08:35:50;;;;;;;1.7;1.2;;;;;;;36.64;25.81152;938.9816;;;;
2020/07/19 08:38:18;;;;;;;1.4;1.1;;;;;;;37.04;24.41602;938.8947;;;;
2020/07/19 08:40:43;;;;;;;2.8;1.2;;;;;;;36.92;25.14844;938.9554;;;;
2020/07/19 08:43:08;;;;;;;4.1;1.4;;;;;;;36.07;25.51367;938.9529;;;;
2020/07/19 08:45:39;;;;;;;1.6;1.1;;;;;;;36.79;26.58301;938.9465;;;;
2020/07/19 08:48:08;;;;;;;2.4;1.3;;;;;;;37.26;25.33691;938.8889;;;;
2020/07/19 08:50:36;;;;;;;2.5;1.3;;;;;;;37.45;24.59668;938.8753;;;;
2020/07/19 08:53:01;;;;;;;2.3;1.2;;;;;;;37.59;23.80273;938.8599;;;;
2020/07/19 08:55:28;;;;;;;2.3;1.2;;;;;;;37.31;25.57031;938.8858;;;;
2020/07/19 08:57:54;;;;;;;2.7;1.3;;;;;;;36.51;25.9375;938.8981;;;;
2020/07/19 09:00:25;;;;;;;1.6;1.1;;;;;;;36.21;25.56934;938.84;;;;
2020/07/19 09:04:39;;;;;;;1.8;1.1;;;;;;;36.47;26.67285;938.8631;;;;
2020/07/19 09:07:04;;;;;;;1.5;1.2;;;;;;;36.86;26.98633;938.8588;;;;
2020/07/19 09:09:33;;;;;;;1.4;1.1;;;;;;;36.49;28.27246;938.8669;;;;
2020/07/19 09:11:58;;;;;;;1.8;1.4;;;;;;;35.52;28.85254;938.8892;;;;
2020/07/19 09:14:23;;;;;;;3.2;1.2;;;;;;;35.44;28.55762;938.8177;;;;
2020/07/19 09:16:51;;;;;;;1.3;1.1;;;;;;;35.56;29.86914;938.7928;;;;
2020/07/19 09:19:16;;;;;;;1.7;1.3;;;;;;;35.25;28.24316;938.7194;;;;
2020/07/19 09:21:44;;;;;;;3.7;1.2;;;;;;;34.73;29.35645;938.7263;;;;
2020/07/19 09:24:09;;;;;;;1.5;1.1;;;;;;;34.96;29.20313;938.7444;;;;
2020/07/19 09:26:34;;;;;;;2.2;1.2;;;;;;;34.78;28.45605;938.7202;;;;
2020/07/19 09:28:59;;;;;;;1.8;1.2;;;;;;;34.53;30.8623;938.7393;;;;
2020/07/19 09:31:24;;;;;;;2.3;1.2;;;;;;;34.29;29.9668;938.6749;;;;
2020/07/19 09:33:53;;;;;;;3.6;1.4;;;;;;;34.17;31.50098;938.688;;;;
2020/07/19 09:36:19;;;;;;;3.4;1.4;;;;;;;33.9;31.20508;938.6305;;;;
2020/07/19 09:38:44;;;;;;;1.5;1.4;;;;;;;33.17;32.71777;938.6168;;;;
2020/07/19 09:41:09;;;;;;;3.2;1.2;;;;;;;32.95;33.24121;938.6155;;;;
2020/07/19 09:43:48;;;;;;;1.4;1.2;;;;;;;32.37;34.24316;938.6199;;;;
2020/07/19 09:46:30;;;;;;;1.9;1.4;;;;;;;32.27;34.62988;938.6055;;;;
2020/07/19 09:50:35;;;;;;;2.7;1.2;;;;;;;32.1;34.84668;938.6033;;;;
2020/07/19 09:53:00;;;;;;;2.2;1.4;;;;;;;31.59;34.49512;938.6469;;;;
2020/07/19 09:55:25;;;;;;;1.4;1.3;;;;;;;31.7;35.10254;938.6358;;;;
2020/07/19 09:59:45;;;;;;;3.1;1.3;;;;;;;31.54;35.91602;938.5747;;;;
2020/07/19 10:02:12;;;;;;;7.2;2.8;;;;;;;31.68;35.87988;938.5055;;;;
2020/07/19 10:04:37;;;;;;;7.8;2.8;;;;;;;31.6;36.79492;938.548;;;;
2020/07/19 10:07:02;;;;;;;6.8;3;;;;;;;31.27;36.81641;938.5075;;;;
2020/07/19 10:09:27;;;;;;;5.6;2.5;;;;;;;31.06;35.97461;938.5552;;;;
2020/07/19 10:12:07;;;;;;;6.8;2.6;;;;;;;30.82;37.24609;938.5538;;;;
2020/07/19 10:14:32;;;;;;;7;2.5;;;;;;;30.8;38.4043;938.5715;;;;
2020/07/19 10:17:14;;;;;;;3.9;2.1;;;;;;;30.65;37.98438;938.5015;;;;
2020/07/19 10:19:40;;;;;;;3.3;1.7;;;;;;;30.3;37.0957;938.4833;;;;
2020/07/19 10:22:06;;;;;;;3.3;1.8;;;;;;;30.11;39.16895;938.4949;;;;
2020/07/19 10:24:32;;;;;;;2.5;2;;;;;;;29.98;40.63672;938.4749;;;;
2020/07/19 10:26:56;;;;;;;3.7;1.7;;;;;;;29.92;39.49805;938.4666;;;;
2020/07/19 10:29:38;;;;;;;4.5;1.8;;;;;;;29.83;39.89551;938.4425;;;;
2020/07/19 10:32:05;;;;;;;3.5;1.8;;;;;;;29.78;40.78516;938.4182;;;;
2020/07/19 10:34:30;;;;;;;3.2;1.7;;;;;;;29.72;39.83789;938.3417;;;;
2020/07/19 10:36:55;;;;;;;2.6;1.9;;;;;;;29.75;39.76953;938.3897;;;;
2020/07/19 10:39:20;;;;;;;2.5;1.6;;;;;;;29.79;39.92773;938.4011;;;;
2020/07/19 10:41:45;;;;;;;3.3;1.7;;;;;;;29.93;39.27246;938.3517;;;;
2020/07/19 10:44:13;;;;;;;2.6;1.6;;;;;;;30.14;39.33789;938.3592;;;;
2020/07/19 10:46:42;;;;;;;3.4;1.6;;;;;;;30.45;38.1709;938.355;;;;
2020/07/19 10:49:21;;;;;;;3.8;1.8;;;;;;;30.9;37.21582;938.3293;;;;
2020/07/19 10:51:46;;;;;;;2.3;1.5;;;;;;;31.15;37.58398;938.3901;;;;
2020/07/19 10:54:12;;;;;;;2.3;1.6;;;;;;;31.1;37.69922;938.365;;;;
2020/07/19 10:56:37;;;;;;;2.4;1.5;;;;;;;31.12;38.12012;938.3649;;;;
2020/07/19 10:59:03;;;;;;;3.8;1.5;;;;;;;31.12;38.63379;938.3705;;;;
2020/07/19 11:01:28;;;;;;;1.8;1.4;;;;;;;31.13;37.92969;938.3527;;;;
2020/07/19 11:03:54;;;;;;;2.6;1.5;;;;;;;31.19;38.93945;938.3635;;;;
2020/07/19 11:07:29;;;;;;;2.4;1.7;;;;;;;31.05;38.93945;938.3354;;;;
2020/07/19 11:09:54;;;;;;;3.8;1.5;;;;;;;30.89;40.13281;938.3127;;;;
2020/07/19 11:12:21;;;;;;;1.9;1.7;;;;;;;30.39;39.07227;938.272;;;;
2020/07/19 11:14:46;;;;;;;3.2;1.8;;;;;;;29.87;40.53125;938.2417;;;;
2020/07/19 11:17:11;;;;;;;2;1.6;;;;;;;29.51;41.64355;938.261;;;;
2020/07/19 11:19:36;;;;;;;3.3;1.9;;;;;;;29.18;41.35059;938.2378;;;;
2020/07/19 11:22:01;;;;;;;3.3;1.8;;;;;;;28.91;43.05176;938.2554;;;;
2020/07/19 11:24:26;;;;;;;2.5;1.7;;;;;;;29.04;43.55176;938.2442;;;;
2020/07/19 11:27:16;;;;;;;3.4;1.6;;;;;;;29.21;42.98535;938.1736;;;;
2020/07/19 11:31:57;;;;;;;3.2;1.7;;;;;;;29.06;42.39941;938.241;;;;
2020/07/19 11:34:36;;;;;;;2.1;1.5;;;;;;;28.87;42.63184;938.2241;;;;
2020/07/19 11:38:21;;;;;;;2.7;1.8;;;;;;;28.38;43.82129;938.2415;;;;
2020/07/19 11:40:54;;;;;;;4.1;1.7;;;;;;;28.31;44.58789;938.1907;;;;
2020/07/19 11:43:19;;;;;;;2.6;1.7;;;;;;;28.08;44.19629;938.1692;;;;
2020/07/19 11:45:52;;;;;;;2.3;1.9;;;;;;;27.62;45.64746;938.2034;;;;
2020/07/19 11:49:20;;;;;;;2.1;1.6;;;;;;;27.42;44.6416;938.2106;;;;
2020/07/19 11:51:49;;;;;;;2.2;1.8;;;;;;;27.36;44.9082;938.1918;;;;
2020/07/19 11:54:19;;;;;;;2.4;1.9;;;;;;;27.24;45.63184;938.1287;;;;
2020/07/19 11:56:44;;;;;;;2.6;1.8;;;;;;;27.17;46.02734;938.1777;;;;
2020/07/19 11:59:09;;;;;;;2.4;1.8;;;;;;;27.18;45.45996;938.082;;;;
2020/07/19 12:01:39;;;;;;;4.2;2;;;;;;;27.23;47.5752;938.1129;;;;
2020/07/19 12:04:04;;;;;;;2.8;1.8;;;;;;;27.2;47.38184;938.1973;;;;
2020/07/19 12:06:29;;;;;;;2.1;1.7;;;;;;;26.98;47.34766;938.1301;;;;
2020/07/19 12:08:55;;;;;;;2.8;1.9;;;;;;;27.08;46.91895;938.1556;;;;
2020/07/19 12:11:20;;;;;;;2;1.8;;;;;;;27.34;46.91113;938.0964;;;;
2020/07/19 12:13:45;;;;;;;2.3;1.8;;;;;;;27.65;45.80469;938.0991;;;;
2020/07/19 12:16:12;;;;;;;2;1.8;;;;;;;27.89;45.70996;938.0735;;;;
2020/07/19 12:20:23;;;;;;;2.7;1.7;;;;;;;27.88;44.91309;938.0848;;;;
2020/07/19 12:22:48;;;;;;;1.7;1.6;;;;;;;27.86;46.57324;938.0377;;;;
2020/07/19 12:25:15;;;;;;;2.4;1.6;;;;;;;27.99;46.37402;938.0405;;;;
2020/07/19 12:29:35;;;;;;;4.1;1.7;;;;;;;27.91;46.875;938.0658;;;;
2020/07/19 12:32:04;;;;;;;1.8;1.6;;;;;;;27.8;45.87891;938.0239;;;;
2020/07/19 12:34:45;;;;;;;2.1;1.7;;;;;;;27.85;45.39746;937.9852;;;;
2020/07/19 12:37:10;;;;;;;2.1;1.5;;;;;;;28.06;46.35645;938.0015;;;;
2020/07/19 12:41:45;;;;;;;3.2;1.6;;;;;;;28.75;43.3457;937.9202;;;;
2020/07/19 12:44:13;;;;;;;2.3;1.6;;;;;;;28.95;41.88867;937.8898;;;;
2020/07/19 12:46:42;;;;;;;1.8;1.6;;;;;;;29.06;42.38672;937.8814;;;;
2020/07/19 12:49:07;;;;;;;3.7;1.6;;;;;;;29.18;43.93555;937.7966;;;;
2020/07/19 12:51:35;;;;;;;2.4;1.6;;;;;;;29.29;44.01758;937.8111;;;;
2020/07/19 12:54:03;;;;;;;2.6;1.5;;;;;;;29.49;43.81055;937.7831;;;;
2020/07/19 12:57:30;;;;;;;3.8;1.6;;;;;;;29.44;40.7793;937.7637;;;;
2020/07/19 12:59:55;;;;;;;4.1;1.5;;;;;;;29.68;41.23047;937.7573;;;;
2020/07/19 13:02:20;;;;;;;1.9;1.4;;;;;;;29.85;40.24219;937.7004;;;;
2020/07/19 13:04:45;;;;;;;3.1;1.4;;;;;;;29.65;40.6543;937.7025;;;;
2020/07/19 13:07:15;;;;;;;3.3;1.5;;;;;;;29.82;41.39648;937.7325;;;;
2020/07/19 13:09:54;;;;;;;3.8;1.5;;;;;;;29.9;42.0127;937.7349;;;;
2020/07/19 13:12:19;;;;;;;2;1.6;;;;;;;29.72;41.65137;937.6797;;;;
2020/07/19 13:14:45;;;;;;;2.4;1.5;;;;;;;29.67;41.95605;937.6552;;;;
2020/07/19 13:17:10;;;;;;;2.3;1.5;;;;;;;28.87;40.81055;937.628;;;;
2020/07/19 13:19:36;;;;;;;2.3;1.4;;;;;;;29.08;42.85449;937.5609;;;;
2020/07/19 13:22:00;;;;;;;2.3;1.7;;;;;;;29.4;42.25293;937.562;;;;
2020/07/19 13:24:25;;;;;;;1.8;1.6;;;;;;;29.5;41.77344;937.5726;;;;
2020/07/19 13:26:50;;;;;;;2.7;1.5;;;;;;;29.62;42.18945;937.5837;;;;
2020/07/19 13:30:47;;;;;;;2.6;1.6;;;;;;;29.61;40.74707;937.63;;;;
2020/07/19 13:33:12;;;;;;;2.3;1.6;;;;;;;29.75;42.41699;937.5572;;;;
2020/07/19 13:35:41;;;;;;;1.6;1.5;;;;;;;29.65;41.97852;937.5925;;;;
2020/07/19 13:38:06;;;;;;;4;1.5;;;;;;;29.5;42.5957;937.571;;;;
2020/07/19 13:41:35;;;;;;;2;1.4;;;;;;;29.42;40.43066;937.538;;;;
2020/07/19 13:44:00;;;;;;;3.1;1.4;;;;;;;29.54;42.1709;937.4794;;;;
2020/07/19 13:46:28;;;;;;;4;1.6;;;;;;;29.43;43.35156;937.4225;;;;
2020/07/19 13:49:00;;;;;;;2.9;1.7;;;;;;;29.37;41.9043;937.4533;;;;
2020/07/19 13:52:29;;;;;;;2.3;1.7;;;;;;;29.21;42.3418;937.5262;;;;
2020/07/19 13:54:54;;;;;;;1.5;1.4;;;;;;;29.1;42.80859;937.5203;;;;
2020/07/19 13:57:19;;;;;;;2.2;1.6;;;;;;;28.87;43.08398;937.5535;;;;
2020/07/19 13:59:48;;;;;;;2;1.6;;;;;;;28.81;42.50586;937.5266;;;;
2020/07/19 14:02:13;;;;;;;1.7;1.4;;;;;;;28.69;42.3291;937.4739;;;;
2020/07/19 14:04:38;;;;;;;3.4;1.4;;;;;;;28.33;42.05762;937.4611;;;;
2020/07/19 14:07:03;;;;;;;2.7;1.6;;;;;;;28.35;44.16309;937.4445;;;;
2020/07/19 14:09:39;;;;;;;1.7;1.5;;;;;;;28.39;44.5957;937.5122;;;;
2020/07/19 14:12:04;;;;;;;2.7;1.6;;;;;;;27.95;42.87695;937.4855;;;;
2020/07/19 14:14:29;;;;;;;2.4;1.6;;;;;;;27.52;43.31055;937.4797;;;;
2020/07/19 14:17:01;;;;;;;2.4;1.7;;;;;;;27.01;45.32422;937.5632;;;;
2020/07/19 14:19:35;;;;;;;2.3;1.8;;;;;;;26.82;45.44629;937.5101;;;;
2020/07/19 14:22:02;;;;;;;3.2;1.8;;;;;;;26.26;46.08887;937.5187;;;;
2020/07/19 14:24:31;;;;;;;1.7;1.6;;;;;;;26.15;46.75098;937.5397;;;;
2020/07/19 14:27:07;;;;;;;2;1.8;;;;;;;26.4;47.23926;937.4822;;;;
2020/07/19 14:29:35;;;;;;;2.7;1.6;;;;;;;26.48;46.95215;937.4996;;;;
2020/07/19 14:32:01;;;;;;;2;1.7;;;;;;;26.63;45.79492;937.4467;;;;
2020/07/19 14:36:21;;;;;;;2;1.8;;;;;;;26.65;45.66699;937.468;;;;
2020/07/19 14:40:54;;;;;;;1.6;1.5;;;;;;;26.75;45.87793;937.4347;;;;
2020/07/19 14:43:19;;;;;;;1.5;1.4;;;;;;;27.18;46.39648;937.4878;;;;
2020/07/19 14:45:46;;;;;;;2.5;1.5;;;;;;;27.5;46.24023;937.4126;;;;
2020/07/19 14:48:23;;;;;;;1.8;1.6;;;;;;;27.44;45.65234;937.4081;;;;
2020/07/19 14:50:48;;;;;;;4.4;1.6;;;;;;;26.95;44.41699;937.4476;;;;